Time;durP1;ratioP1;P1;durP2;ratioP2;P2;SDS_P1;SDS_P2;PMS_P1;PMS_P2;Temp;Humidity;BMP_temperature;BMP_pressure;BME280_temperature;BME280_humidity;BME280_pressure;Samples;Min_cycle;Max_cycle;Signal;HPM_P1;HPM_P2
2024/02/25 00:00:45;;;;;;;;;3.33;3.33;;;;;12.52;100.00;99592.69;2104919;27;45929;-51
2024/02/25 00:01:46;;;;;;;;;3.00;3.00;;;;;12.53;100.00;99588.22;2104118;28;46869;-50
2024/02/25 00:02:46;;;;;;;;;4.33;3.67;;;;;12.58;100.00;99589.75;2102761;28;46761;-50
2024/02/25 00:03:46;;;;;;;;;4.00;4.00;;;;;12.32;100.00;99590.09;2104827;28;46693;-49
2024/02/25 00:04:47;;;;;;;;;3.00;3.00;;;;;12.34;100.00;99589.13;2104952;28;46269;-48
2024/02/25 00:05:47;;;;;;;;;5.00;4.33;;;;;12.41;100.00;99588.81;2106280;27;45503;-52
2024/02/25 00:06:47;;;;;;;;;2.00;2.00;;;;;12.40;100.00;99590.63;2086783;28;46916;-48
2024/02/25 00:07:48;;;;;;;;;2.00;2.00;;;;;12.37;100.00;99583.66;2086843;28;46951;-50
2024/02/25 00:08:48;;;;;;;;;3.00;2.00;;;;;12.30;100.00;99582.19;2103259;28;47193;-50
2024/02/25 00:09:48;;;;;;;;;4.00;4.00;;;;;12.29;100.00;99585.78;2104340;27;46209;-50
2024/02/25 00:10:49;;;;;;;;;3.33;3.33;;;;;12.27;100.00;99592.13;2103741;28;46253;-55
2024/02/25 00:11:49;;;;;;;;;5.33;4.00;;;;;12.29;100.00;99588.44;2105150;28;46659;-51
2024/02/25 00:12:49;;;;;;;;;2.00;2.00;;;;;12.31;100.00;99591.03;2104983;28;46786;-50
2024/02/25 00:13:50;;;;;;;;;2.67;2.67;;;;;12.29;100.00;99592.91;2104935;28;46651;-50
2024/02/25 00:14:50;;;;;;;;;3.00;3.00;;;;;12.28;100.00;99596.50;2104984;28;46231;-48
2024/02/25 00:15:50;;;;;;;;;4.00;2.67;;;;;12.19;100.00;99588.94;2105486;28;45865;-47
2024/02/25 00:16:51;;;;;;;;;3.00;3.00;;;;;12.32;100.00;99591.00;2104913;28;46716;-53
2024/02/25 00:17:51;;;;;;;;;5.00;4.00;;;;;12.38;100.00;99592.50;2104992;28;46657;-49
2024/02/25 00:18:51;;;;;;;;;2.00;2.00;;;;;12.43;100.00;99598.44;2104786;28;46053;-49
2024/02/25 00:19:52;;;;;;;;;2.33;2.00;;;;;12.39;100.00;99596.88;2105542;28;46751;-49
2024/02/25 00:20:53;;;;;;;;;2.67;2.67;;;;;12.33;100.00;99589.19;2104998;28;45495;-51
2024/02/25 00:21:53;;;;;;;;;2.50;2.50;;;;;12.30;100.00;99597.28;2105320;28;46270;-52
2024/02/25 00:22:54;;;;;;;;;4.00;2.00;;;;;12.29;100.00;99595.56;2105510;28;46857;-50
2024/02/25 00:23:54;;;;;;;;;4.00;4.00;;;;;12.28;100.00;99602.69;2104727;28;46557;-51
2024/02/25 00:24:54;;;;;;;;;4.00;4.00;;;;;12.28;100.00;99597.38;2103242;28;46245;-51
2024/02/25 00:25:55;;;;;;;;;3.00;3.00;;;;;12.19;100.00;99600.44;2104205;28;46532;-52
2024/02/25 00:26:55;;;;;;;;;3.00;3.00;;;;;12.42;100.00;99591.41;2104912;28;45939;-50
2024/02/25 00:27:55;;;;;;;;;4.00;3.00;;;;;12.44;100.00;99589.53;2104838;28;46098;-47
2024/02/25 00:28:56;;;;;;;;;3.00;3.00;;;;;12.49;100.00;99594.66;2104528;28;46662;-53
2024/02/25 00:29:56;;;;;;;;;3.67;2.67;;;;;12.57;100.00;99595.13;2104622;28;46099;-48
2024/02/25 00:30:56;;;;;;;;;3.00;2.00;;;;;12.51;100.00;99590.97;2104989;28;46212;-48
2024/02/25 00:31:57;;;;;;;;;4.00;4.00;;;;;12.49;100.00;99592.84;2104741;28;47182;-54
2024/02/25 00:32:57;;;;;;;;;3.00;3.00;;;;;12.55;100.00;99594.34;2104972;28;46837;-49
2024/02/25 00:33:57;;;;;;;;;2.67;2.67;;;;;12.59;100.00;99593.28;2105003;28;46464;-50
2024/02/25 00:35:00;;;;;;;;;2.00;2.00;;;;;12.55;100.00;99597.00;2104595;28;46280;-50
2024/02/25 00:36:00;;;;;;;;;4.00;2.75;;;;;12.46;100.00;99600.97;2104967;28;46415;-51
2024/02/25 00:37:01;;;;;;;;;2.33;2.33;;;;;12.27;100.00;99603.63;2104897;28;47228;-51
2024/02/25 00:38:01;;;;;;;;;3.00;3.00;;;;;12.21;100.00;99600.41;2104693;28;46393;-50
2024/02/25 00:39:03;;;;;;;;;3.33;3.33;;;;;12.18;100.00;99605.84;2096832;28;46732;-52
2024/02/25 00:40:05;;;;;;;;;3.25;3.25;;;;;12.13;100.00;99606.06;2097901;27;46744;-50
2024/02/25 00:41:07;;;;;;;;;2.75;2.75;;;;;12.11;100.00;99604.41;2087641;28;46325;-51
2024/02/25 00:42:08;;;;;;;;;3.00;3.00;;;;;12.14;100.00;99609.59;2087696;28;46866;-52
2024/02/25 00:43:08;;;;;;;;;3.33;3.33;;;;;12.30;100.00;99602.63;2105824;27;45871;-51
2024/02/25 00:44:08;;;;;;;;;4.00;3.00;;;;;12.26;100.00;99598.38;2108926;27;46590;-52
2024/02/25 00:45:09;;;;;;;;;6.00;3.67;;;;;12.22;100.00;99604.78;2109150;27;46680;-51
2024/02/25 00:46:10;;;;;;;;;3.33;3.33;;;;;12.18;100.00;99612.03;2104955;27;46263;-50
2024/02/25 00:47:11;;;;;;;;;2.50;2.50;;;;;12.14;100.00;99610.44;2109742;27;46421;-48
2024/02/25 00:48:12;;;;;;;;;2.00;2.00;;;;;12.10;100.00;99606.22;2107957;27;46504;-48
2024/02/25 00:49:13;;;;;;;;;2.75;2.75;;;;;12.10;100.00;99608.88;2106979;27;46944;-50
2024/02/25 00:50:13;;;;;;;;;3.00;3.00;;;;;12.06;100.00;99605.47;2111181;27;46361;-52
2024/02/25 00:51:14;;;;;;;;;2.00;2.00;;;;;12.21;100.00;99601.25;2110847;27;46311;-51
2024/02/25 00:52:14;;;;;;;;;2.67;2.67;;;;;12.21;100.00;99608.38;2107964;27;45605;-52
2024/02/25 00:53:16;;;;;;;;;5.33;2.33;;;;;12.17;100.00;99607.63;2108223;27;46361;-50
2024/02/25 00:54:18;;;;;;;;;3.25;3.25;;;;;12.12;100.00;99614.97;2104227;27;46595;-52
2024/02/25 00:55:18;;;;;;;;;3.25;3.25;;;;;12.08;100.00;99610.75;2109454;27;46662;-51
2024/02/25 00:56:18;;;;;;;;;3.67;3.67;;;;;12.09;100.00;99617.78;2096776;28;46866;-48
2024/02/25 00:57:19;;;;;;;;;1.67;1.00;;;;;12.03;100.00;99616.25;2097741;28;45380;-47
2024/02/25 00:58:20;;;;;;;;;2.75;2.75;;;;;12.07;100.00;99607.22;2109426;27;46259;-51
2024/02/25 00:59:20;;;;;;;;;3.00;3.00;;;;;12.09;100.00;99615.13;2106422;27;45198;-50
2024/02/25 01:00:20;;;;;;;;;3.00;3.00;;;;;12.21;100.00;99606.59;2107663;27;46232;-54
2024/02/25 01:01:21;;;;;;;;;3.00;3.00;;;;;12.06;100.00;99612.56;2109046;27;46657;-49
2024/02/25 01:02:21;;;;;;;;;3.00;3.00;;;;;12.03;100.00;99616.25;2104383;27;47076;-51
2024/02/25 01:03:22;;;;;;;;;2.67;2.67;;;;;12.02;100.00;99613.66;2102030;27;46406;-50
2024/02/25 01:04:22;;;;;;;;;4.33;3.00;;;;;12.04;100.00;99612.66;2104820;28;46641;-51
2024/02/25 01:05:23;;;;;;;;;4.67;4.67;;;;;12.04;100.00;99619.75;2104575;28;46409;-52
2024/02/25 01:06:24;;;;;;;;;3.50;3.50;;;;;12.03;100.00;99616.25;2109930;27;46785;-52
2024/02/25 01:07:24;;;;;;;;;3.00;3.00;;;;;12.24;100.00;99616.22;2104639;28;46650;-52
2024/02/25 01:08:24;;;;;;;;;4.00;3.67;;;;;12.19;100.00;99610.22;2104822;28;46852;-51
2024/02/25 01:09:25;;;;;;;;;3.33;3.33;;;;;12.20;100.00;99607.53;2108554;27;46335;-52
2024/02/25 01:10:25;;;;;;;;;3.00;3.00;;;;;12.20;100.00;99609.31;2104924;27;46804;-53
2024/02/25 01:11:25;;;;;;;;;3.00;3.00;;;;;12.18;100.00;99608.50;2104677;28;46358;-49
2024/02/25 01:12:26;;;;;;;;;3.00;3.00;;;;;12.21;100.00;99603.06;2104830;28;46478;-52
2024/02/25 01:13:26;;;;;;;;;4.33;3.67;;;;;12.23;100.00;99606.50;2106310;28;46836;-52
2024/02/25 01:14:26;;;;;;;;;2.33;2.00;;;;;12.25;100.00;99609.94;2106258;28;46172;-53
2024/02/25 01:15:27;;;;;;;;;3.00;3.00;;;;;12.24;100.00;99600.25;2106375;28;46170;-49
2024/02/25 01:16:27;;;;;;;;;2.00;2.00;;;;;12.26;100.00;99598.38;2106240;28;46595;-52
2024/02/25 01:17:28;;;;;;;;;3.00;3.00;;;;;12.24;100.00;99605.56;2106126;28;46841;-52
2024/02/25 01:18:32;;;;;;;;;4.67;3.00;;;;;12.26;100.00;99601.03;2105973;28;46698;-48
2024/02/25 01:19:32;;;;;;;;;2.50;2.00;;;;;12.24;100.00;99601.13;2106317;28;45738;-47
2024/02/25 01:20:33;;;;;;;;;3.00;3.00;;;;;12.27;100.00;99597.44;2102192;28;46615;-52
2024/02/25 01:21:33;;;;;;;;;2.33;2.33;;;;;12.27;100.00;99603.63;2104553;28;46433;-48
2024/02/25 01:22:34;;;;;;;;;3.67;3.00;;;;;12.25;100.00;99592.19;2106167;28;46166;-52
2024/02/25 01:23:34;;;;;;;;;1.67;1.67;;;;;12.27;100.00;99600.09;2105758;28;46165;-53
2024/02/25 01:24:34;;;;;;;;;1.33;1.33;;;;;12.29;100.00;99592.91;2106235;28;46012;-48
2024/02/25 01:25:35;;;;;;;;;2.67;2.67;;;;;12.31;100.00;99597.22;2105363;28;46745;-50
2024/02/25 01:26:41;;;;;;;;;2.00;2.00;;;;;12.33;100.00;99600.69;2105910;28;46601;-52
2024/02/25 01:27:44;;;;;;;;;3.75;3.75;;;;;12.30;100.00;99587.50;2106587;28;46533;-53
2024/02/25 01:28:46;;;;;;;;;2.00;2.00;;;;;12.30;100.00;99592.84;2106096;28;46338;-51
2024/02/25 01:29:46;;;;;;;;;3.75;2.25;;;;;12.31;100.00;99591.03;2105886;27;46718;-50
2024/02/25 01:30:47;;;;;;;;;4.00;3.00;;;;;12.32;100.00;99587.44;2105990;28;46450;-50
2024/02/25 01:31:52;;;;;;;;;3.00;3.00;;;;;12.33;100.00;99590.06;2105784;28;46678;-52
2024/02/25 01:32:52;;;;;;;;;2.00;2.00;;;;;12.33;100.00;99589.19;2105888;28;46588;-50
2024/02/25 01:33:52;;;;;;;;;3.00;3.00;;;;;12.34;100.00;99594.44;2099736;28;46692;-51
2024/02/25 01:34:53;;;;;;;;;0.67;0.67;;;;;12.34;100.00;99596.25;2106088;28;46643;-51
2024/02/25 01:35:53;;;;;;;;;3.00;2.67;;;;;12.36;100.00;99583.72;2106136;28;46680;-49
2024/02/25 01:36:54;;;;;;;;;3.00;3.00;;;;;12.35;100.00;99585.53;2105734;28;46633;-53
2024/02/25 01:37:54;;;;;;;;;3.00;3.00;;;;;12.35;100.00;99588.19;2101051;28;46842;-51
2024/02/25 01:38:56;;;;;;;;;3.00;3.00;;;;;12.35;100.00;99585.53;2101917;28;46323;-51
2024/02/25 01:39:57;;;;;;;;;2.00;2.00;;;;;12.33;100.00;99579.41;2102121;28;45704;-50
2024/02/25 01:40:58;;;;;;;;;3.00;2.33;;;;;12.28;100.00;99581.41;2105893;28;46511;-50
2024/02/25 01:41:58;;;;;;;;;3.00;3.00;;;;;12.31;100.00;99586.56;2105850;28;46709;-49
2024/02/25 01:43:09;;;;;;;;;3.00;3.00;;;;;12.26;100.00;99585.94;2106035;28;46288;-51
2024/02/25 01:44:11;;;;;;;;;3.00;3.00;;;;;12.21;100.00;99581.78;2105919;28;46420;-49
2024/02/25 01:45:11;;;;;;;;;5.00;5.00;;;;;12.22;100.00;99584.38;2105961;28;46459;-47
2024/02/25 01:46:11;;;;;;;;;2.67;2.67;;;;;12.32;100.00;99576.78;2105642;28;45834;-47
2024/02/25 01:47:12;;;;;;;;;3.33;3.00;;;;;12.37;100.00;99580.97;2106014;28;45608;-48
2024/02/25 01:48:15;;;;;;;;;3.00;3.00;;;;;12.30;100.00;99578.66;2105506;28;46846;-50
2024/02/25 01:49:16;;;;;;;;;3.00;3.00;;;;;12.22;100.00;99570.22;2105719;28;47148;-49
2024/02/25 01:50:17;;;;;;;;;2.00;2.00;;;;;12.20;100.00;99574.75;2106123;28;46794;-51
2024/02/25 01:51:19;;;;;;;;;2.50;2.50;;;;;12.17;100.00;99575.72;2105614;28;47129;-49
2024/02/25 01:52:21;;;;;;;;;3.00;3.00;;;;;12.13;100.00;99568.81;2105728;28;46691;-50
2024/02/25 01:53:22;;;;;;;;;5.75;4.00;;;;;12.17;100.00;99574.84;2104368;28;46998;-49
2024/02/25 01:54:22;;;;;;;;;4.33;3.33;;;;;12.16;100.00;99583.78;2103131;27;46354;-51
2024/02/25 01:55:24;;;;;;;;;3.00;3.00;;;;;12.15;100.00;99572.28;2105760;28;46884;-50
2024/02/25 01:56:24;;;;;;;;;2.00;2.00;;;;;12.27;100.00;99576.16;2105559;28;46385;-51
2024/02/25 01:57:25;;;;;;;;;2.00;2.00;;;;;12.32;100.00;99576.78;2094735;28;46802;-51
2024/02/25 01:58:26;;;;;;;;;2.00;2.00;;;;;12.33;100.00;99576.75;2095681;28;46433;-49
2024/02/25 01:59:26;;;;;;;;;4.00;2.25;;;;;12.33;100.00;99576.75;2105742;28;46465;-50
2024/02/25 02:00:30;;;;;;;;;2.33;2.33;;;;;12.37;100.00;99572.13;2105888;28;46620;-48
2024/02/25 02:01:37;;;;;;;;;4.00;3.00;;;;;12.40;100.00;99579.97;2105666;28;46491;-49
2024/02/25 02:02:37;;;;;;;;;4.00;3.00;;;;;12.23;100.00;99570.13;2103669;28;46367;-48
2024/02/25 02:03:38;;;;;;;;;3.00;3.00;;;;;12.29;100.00;99575.16;2102888;28;46298;-53
2024/02/25 02:04:38;;;;;;;;;3.00;2.00;;;;;12.32;100.00;99571.47;2105573;28;46428;-52
2024/02/25 02:05:39;;;;;;;;;2.00;2.00;;;;;12.33;100.00;99576.75;2096408;28;46229;-52
2024/02/25 02:06:40;;;;;;;;;3.00;3.00;;;;;12.33;100.00;99575.88;2091641;28;47211;-52
2024/02/25 02:07:40;;;;;;;;;3.00;3.00;;;;;12.32;100.00;99575.03;2105839;28;45467;-49
2024/02/25 02:08:41;;;;;;;;;2.00;2.00;;;;;12.31;100.00;99577.72;2096602;28;46442;-50
2024/02/25 02:09:41;;;;;;;;;5.33;4.33;;;;;12.30;100.00;99565.38;2100736;28;46426;-52
2024/02/25 02:10:41;;;;;;;;;4.33;4.33;;;;;12.32;100.00;99568.81;2105858;28;46322;-47
2024/02/25 02:11:42;;;;;;;;;6.33;6.00;;;;;12.42;100.00;99580.75;2105588;28;47405;-49
2024/02/25 02:12:44;;;;;;;;;2.67;2.67;;;;;12.44;100.00;99570.91;2105679;28;46343;-49
2024/02/25 02:13:45;;;;;;;;;11.50;9.75;;;;;12.45;100.00;99572.66;2105428;28;46667;-50
2024/02/25 02:14:45;;;;;;;;;9.00;8.75;;;;;12.44;100.00;99568.22;2104423;28;46790;-49
2024/02/25 02:15:45;;;;;;;;;4.67;4.67;;;;;12.47;100.00;99569.91;2095873;28;46270;-49
2024/02/25 02:16:46;;;;;;;;;3.33;3.00;;;;;12.45;100.00;99566.44;2096331;28;46808;-50
2024/02/25 02:17:46;;;;;;;;;3.33;3.33;;;;;12.43;100.00;99566.50;2105862;27;45025;-48
2024/02/25 02:18:47;;;;;;;;;2.67;2.00;;;;;12.41;100.00;99563.06;2085147;28;45954;-49
2024/02/25 02:19:47;;;;;;;;;3.50;1.75;;;;;12.40;100.00;99566.66;2083127;28;46721;-50
2024/02/25 02:20:48;;;;;;;;;2.00;2.00;;;;;12.38;100.00;99569.41;2105461;28;46611;-51
2024/02/25 02:21:54;;;;;;;;;1.67;1.67;;;;;12.38;100.00;99557.91;2105367;28;46848;-52
2024/02/25 02:22:54;;;;;;;;;3.25;3.00;;;;;12.38;100.00;99565.88;2105813;28;46855;-49
2024/02/25 02:23:55;;;;;;;;;5.00;4.00;;;;;12.37;100.00;99566.81;2105749;27;46272;-48
2024/02/25 02:24:55;;;;;;;;;2.67;2.67;;;;;12.34;100.00;99556.34;2104946;28;46364;-52
2024/02/25 02:25:56;;;;;;;;;2.00;2.00;;;;;12.35;100.00;99566.03;2105764;28;46469;-49
2024/02/25 02:26:56;;;;;;;;;2.00;2.00;;;;;12.33;100.00;99562.59;2105722;28;46366;-53
2024/02/25 02:27:56;;;;;;;;;3.00;2.00;;;;;12.32;100.00;99569.72;2101932;28;46182;-52
2024/02/25 02:28:57;;;;;;;;;2.00;2.00;;;;;12.31;100.00;99559.13;2113169;27;46554;-49
2024/02/25 02:29:57;;;;;;;;;2.00;2.00;;;;;12.28;100.00;99565.44;2113436;27;46356;-50
2024/02/25 02:30:57;;;;;;;;;3.00;3.00;;;;;12.30;100.00;99554.72;2106343;28;46790;-52
2024/02/25 02:31:59;;;;;;;;;4.33;4.33;;;;;12.32;100.00;99560.84;2105455;28;46365;-51
2024/02/25 02:33:00;;;;;;;;;4.00;2.50;;;;;12.24;100.00;99555.03;2105572;28;46402;-49
2024/02/25 02:34:00;;;;;;;;;4.00;3.00;;;;;12.22;100.00;99560.44;2105456;28;46593;-51
2024/02/25 02:35:02;;;;;;;;;2.33;1.00;;;;;12.18;100.00;99555.31;2105398;28;46569;-51
2024/02/25 02:36:02;;;;;;;;;4.00;4.00;;;;;12.19;100.00;99551.72;2104463;28;46719;-52
2024/02/25 02:37:03;;;;;;;;;3.33;3.33;;;;;12.27;100.00;99555.75;2104206;27;46511;-52
2024/02/25 02:38:09;;;;;;;;;2.33;2.33;;;;;12.25;100.00;99554.97;2103613;27;46778;-50
2024/02/25 02:39:09;;;;;;;;;4.00;4.00;;;;;12.21;100.00;99553.38;2105371;28;47048;-49
2024/02/25 02:40:10;;;;;;;;;2.67;2.67;;;;;12.21;100.00;99552.53;2105238;28;46457;-51
2024/02/25 02:41:11;;;;;;;;;4.00;3.00;;;;;12.23;100.00;99542.66;2096665;28;45047;-49
2024/02/25 02:42:11;;;;;;;;;4.00;3.00;;;;;12.23;100.00;99553.31;2096590;28;45058;-50
2024/02/25 02:43:11;;;;;;;;;5.00;4.00;;;;;12.21;100.00;99547.22;2104013;28;46628;-49
2024/02/25 02:44:12;;;;;;;;;6.00;5.33;;;;;12.17;100.00;99558.91;2104655;28;46585;-49
2024/02/25 02:45:12;;;;;;;;;4.00;4.00;;;;;12.15;100.00;99558.13;2102341;28;46505;-51
2024/02/25 02:46:13;;;;;;;;;3.00;3.00;;;;;12.13;100.00;99554.66;2105714;28;46629;-51
2024/02/25 02:47:14;;;;;;;;;4.00;2.33;;;;;12.13;100.00;99552.00;2105352;28;46309;-51
2024/02/25 02:48:15;;;;;;;;;3.00;3.00;;;;;12.10;100.00;99562.78;2105311;28;46509;-49
2024/02/25 02:49:16;;;;;;;;;3.00;3.00;;;;;12.09;100.00;99561.94;2105434;28;46611;-48
2024/02/25 02:50:16;;;;;;;;;4.00;4.00;;;;;12.07;100.00;99562.00;2105590;28;46361;-51
2024/02/25 02:51:16;;;;;;;;;3.00;3.00;;;;;12.05;100.00;99555.88;2096098;28;46445;-48
2024/02/25 02:52:17;;;;;;;;;3.00;3.00;;;;;12.04;100.00;99556.81;2096097;28;46410;-47
2024/02/25 02:53:17;;;;;;;;;4.67;4.67;;;;;12.06;100.00;99557.59;2103964;28;47069;-50
2024/02/25 02:54:18;;;;;;;;;5.67;4.00;;;;;12.05;100.00;99557.66;2105345;28;46764;-51
2024/02/25 02:55:19;;;;;;;;;4.00;4.00;;;;;12.06;100.00;99554.94;2105454;28;46788;-48
2024/02/25 02:56:19;;;;;;;;;2.00;2.00;;;;;12.04;100.00;99553.28;2105485;28;46149;-52
2024/02/25 02:57:20;;;;;;;;;3.00;3.00;;;;;12.03;100.00;99543.59;2105486;28;46066;-54
2024/02/25 02:58:20;;;;;;;;;2.00;2.00;;;;;12.05;100.00;99541.72;2105560;28;46288;-51
2024/02/25 02:59:20;;;;;;;;;4.33;3.67;;;;;12.03;100.00;99547.09;2105248;28;46352;-52
2024/02/25 03:00:21;;;;;;;;;3.00;3.00;;;;;12.01;100.00;99545.47;2105452;28;46209;-51
2024/02/25 03:01:23;;;;;;;;;6.00;3.00;;;;;12.05;100.00;99544.38;2101896;28;46578;-51
2024/02/25 03:02:23;;;;;;;;;4.00;3.25;;;;;12.04;100.00;99540.00;2101880;28;46353;-50
2024/02/25 03:03:23;;;;;;;;;2.33;2.33;;;;;12.03;100.00;99536.47;2097288;28;46757;-50
2024/02/25 03:04:24;;;;;;;;;1.00;1.00;;;;;12.07;100.00;99542.53;2103105;28;46324;-49
2024/02/25 03:05:24;;;;;;;;;3.00;3.00;;;;;12.15;100.00;99543.03;2105737;28;46258;-47
2024/02/25 03:06:24;;;;;;;;;3.00;3.00;;;;;12.08;100.00;99534.47;2111715;27;46830;-47
2024/02/25 03:07:26;;;;;;;;;4.33;3.33;;;;;12.10;100.00;99536.19;2109472;27;46656;-49
2024/02/25 03:08:27;;;;;;;;;2.25;2.25;;;;;12.08;100.00;99537.13;2105497;28;46667;-50
2024/02/25 03:09:27;;;;;;;;;3.00;3.00;;;;;12.07;100.00;99538.06;2109625;27;46369;-52
2024/02/25 03:10:30;;;;;;;;;3.00;3.00;;;;;12.09;100.00;99543.31;2105459;27;45839;-49
2024/02/25 03:11:30;;;;;;;;;3.25;3.25;;;;;12.07;100.00;99542.53;2103976;28;46000;-49
2024/02/25 03:12:30;;;;;;;;;0.00;0.00;;;;;12.07;100.00;99542.53;2105067;28;45998;-51
2024/02/25 03:13:30;;;;;;;;;2.00;2.00;;;;;12.07;100.00;99537.22;2105572;28;46308;-48
2024/02/25 03:14:31;;;;;;;;;3.00;3.00;;;;;12.03;100.00;99538.28;2105458;28;45939;-49
2024/02/25 03:15:31;;;;;;;;;2.00;2.00;;;;;12.00;100.00;99541.94;2105473;28;46852;-49
2024/02/25 03:16:32;;;;;;;;;3.33;3.33;;;;;12.03;100.00;99538.28;2105609;28;46125;-51
2024/02/25 03:17:32;;;;;;;;;4.67;4.00;;;;;12.03;100.00;99539.13;2105221;28;46567;-52
2024/02/25 03:18:32;;;;;;;;;5.33;4.00;;;;;12.00;100.00;99533.97;2105190;28;46566;-51
2024/02/25 03:19:32;;;;;;;;;4.00;4.00;;;;;12.02;100.00;99540.06;2105308;28;46372;-49
2024/02/25 03:20:33;;;;;;;;;5.00;3.33;;;;;12.04;100.00;99538.19;2105017;28;46147;-51
2024/02/25 03:21:33;;;;;;;;;4.00;4.00;;;;;12.05;100.00;99537.25;2105236;28;46303;-49
2024/02/25 03:22:35;;;;;;;;;5.33;4.00;;;;;12.01;100.00;99535.69;2105296;28;46482;-50
2024/02/25 03:23:36;;;;;;;;;3.00;3.00;;;;;11.98;100.00;99532.31;2104897;28;46355;-51
2024/02/25 03:24:37;;;;;;;;;2.75;2.25;;;;;11.98;100.00;99529.66;2105330;28;47005;-48
2024/02/25 03:25:37;;;;;;;;;3.67;3.67;;;;;12.01;100.00;99529.50;2105279;28;46466;-50
2024/02/25 03:26:38;;;;;;;;;3.00;3.00;;;;;11.98;100.00;99527.84;2104659;28;46854;-49
2024/02/25 03:27:38;;;;;;;;;3.00;2.67;;;;;12.01;100.00;99532.16;2104925;28;45954;-51
2024/02/25 03:28:38;;;;;;;;;3.67;3.00;;;;;12.01;100.00;99534.81;2105157;28;46283;-52
2024/02/25 03:29:42;;;;;;;;;3.00;3.00;;;;;12.02;100.00;99536.53;2103761;28;46608;-51
2024/02/25 03:30:42;;;;;;;;;4.00;4.00;;;;;11.97;100.00;99534.13;2105378;28;46616;-52
2024/02/25 03:31:43;;;;;;;;;4.33;2.67;;;;;11.95;100.00;99541.31;2105111;28;46369;-53
2024/02/25 03:32:43;;;;;;;;;5.00;5.00;;;;;11.94;100.00;99523.63;2105010;28;45439;-52
2024/02/25 03:33:43;;;;;;;;;4.00;3.00;;;;;11.94;100.00;99528.06;2105040;28;46877;-48
2024/02/25 03:34:44;;;;;;;;;4.00;3.00;;;;;11.95;100.00;99530.66;2105219;28;46490;-49
2024/02/25 03:35:44;;;;;;;;;3.00;3.00;;;;;11.95;100.00;99525.34;2105150;28;46333;-49
2024/02/25 03:36:44;;;;;;;;;3.67;3.67;;;;;11.95;100.00;99527.16;2105102;28;46502;-51
2024/02/25 03:37:45;;;;;;;;;3.33;3.00;;;;;11.98;100.00;99524.34;2100776;28;45148;-48
2024/02/25 03:38:45;;;;;;;;;3.00;3.00;;;;;12.00;100.00;99525.97;2106290;27;47328;-48
2024/02/25 03:39:46;;;;;;;;;3.33;3.00;;;;;11.99;100.00;99526.06;2105370;28;46195;-49
2024/02/25 03:40:46;;;;;;;;;4.00;3.33;;;;;11.99;100.00;99526.06;2105099;27;46160;-51
2024/02/25 03:41:46;;;;;;;;;3.67;3.67;;;;;12.00;100.00;99523.31;2106437;27;46556;-49
2024/02/25 03:42:48;;;;;;;;;4.00;2.00;;;;;12.00;100.00;99530.44;2105357;28;47061;-51
2024/02/25 03:43:48;;;;;;;;;3.25;2.25;;;;;11.98;100.00;99527.00;2106396;27;47126;-49
2024/02/25 03:44:49;;;;;;;;;2.00;2.00;;;;;12.00;100.00;99531.31;2105084;28;46208;-49
2024/02/25 03:45:49;;;;;;;;;3.00;3.00;;;;;12.00;100.00;99527.78;2109351;27;46799;-48
2024/02/25 03:46:49;;;;;;;;;1.00;1.00;;;;;12.01;100.00;99530.38;2106250;27;46435;-48
2024/02/25 03:47:50;;;;;;;;;3.00;2.00;;;;;12.00;100.00;99527.78;2105089;28;46296;-50
2024/02/25 03:48:50;;;;;;;;;4.00;4.00;;;;;11.96;100.00;99531.53;2106358;27;46644;-48
2024/02/25 03:49:51;;;;;;;;;3.00;3.00;;;;;11.97;100.00;99520.81;2106267;27;46349;-48
2024/02/25 03:50:51;;;;;;;;;3.00;3.00;;;;;11.98;100.00;99519.03;2098176;28;46183;-49
2024/02/25 03:51:52;;;;;;;;;3.00;3.00;;;;;11.98;100.00;99517.22;2109864;27;47316;-47
2024/02/25 03:52:52;;;;;;;;;3.00;3.00;;;;;11.99;100.00;99515.44;2108740;27;46246;-49
2024/02/25 03:53:52;;;;;;;;;3.00;3.00;;;;;11.99;100.00;99518.94;2104461;27;46348;-48
2024/02/25 03:54:53;;;;;;;;;4.00;4.00;;;;;12.02;100.00;99518.78;2109309;27;46852;-53
2024/02/25 03:55:53;;;;;;;;;4.00;4.00;;;;;12.02;100.00;99517.94;2104918;28;46554;-51
2024/02/25 03:56:53;;;;;;;;;4.00;4.00;;;;;12.00;100.00;99517.16;2106037;27;46187;-51
2024/02/25 03:57:55;;;;;;;;;3.33;3.33;;;;;11.97;100.00;99526.13;2106287;27;46639;-48
2024/02/25 03:58:55;;;;;;;;;4.75;3.00;;;;;11.99;100.00;99523.41;2105145;28;46778;-48
2024/02/25 03:59:56;;;;;;;;;3.67;2.00;;;;;11.99;100.00;99518.09;2106382;27;46898;-49
2024/02/25 04:00:56;;;;;;;;;4.33;2.67;;;;;11.98;100.00;99519.88;2104889;28;46273;-48
2024/02/25 04:01:56;;;;;;;;;4.00;4.00;;;;;11.97;100.00;99519.97;2104990;27;47132;-49
2024/02/25 04:02:57;;;;;;;;;4.00;4.00;;;;;11.97;100.00;99515.50;2106691;27;46231;-51
2024/02/25 04:03:57;;;;;;;;;4.33;3.33;;;;;11.97;100.00;99514.63;2110559;27;46594;-51
2024/02/25 04:04:58;;;;;;;;;4.00;2.00;;;;;11.98;100.00;99519.03;2110746;27;46587;-48
2024/02/25 04:06:00;;;;;;;;;3.00;3.00;;;;;11.98;100.00;99519.88;2109054;27;47135;-49
2024/02/25 04:07:00;;;;;;;;;4.75;4.00;;;;;11.98;100.00;99527.84;2104927;28;46796;-47
2024/02/25 04:08:00;;;;;;;;;3.00;3.00;;;;;11.96;100.00;99524.41;2107829;27;46092;-50
2024/02/25 04:09:01;;;;;;;;;4.67;3.33;;;;;11.94;100.00;99517.41;2108834;27;45048;-48
2024/02/25 04:10:01;;;;;;;;;2.00;2.00;;;;;11.95;100.00;99521.81;2105296;27;46619;-49
2024/02/25 04:11:01;;;;;;;;;4.00;4.00;;;;;11.94;100.00;99520.06;2105115;27;46277;-49
2024/02/25 04:12:02;;;;;;;;;4.67;4.67;;;;;11.95;100.00;99522.69;2105346;28;46715;-51
2024/02/25 04:13:03;;;;;;;;;2.00;2.00;;;;;11.96;100.00;99521.75;2110683;27;46547;-46
2024/02/25 04:14:03;;;;;;;;;3.00;3.00;;;;;11.95;100.00;99519.16;2107666;27;46286;-48
2024/02/25 04:15:04;;;;;;;;;3.00;3.00;;;;;11.99;100.00;99518.09;2104929;28;46474;-51
2024/02/25 04:16:05;;;;;;;;;3.25;3.25;;;;;11.98;100.00;99514.56;2105276;27;46376;-50
2024/02/25 04:17:05;;;;;;;;;3.33;3.00;;;;;11.98;100.00;99519.03;2105260;28;45802;-50
2024/02/25 04:18:06;;;;;;;;;4.00;4.00;;;;;11.93;100.00;99518.34;2105283;27;45896;-51
2024/02/25 04:19:07;;;;;;;;;3.75;3.75;;;;;11.94;100.00;99512.09;2098412;27;46781;-51
2024/02/25 04:20:08;;;;;;;;;5.00;5.00;;;;;11.92;100.00;99520.16;2099222;28;46584;-51
2024/02/25 04:21:08;;;;;;;;;6.00;4.33;;;;;11.89;100.00;99517.63;2109805;27;46334;-52
2024/02/25 04:22:08;;;;;;;;;6.00;4.00;;;;;11.87;100.00;99514.19;2106975;27;46230;-49
2024/02/25 04:23:09;;;;;;;;;4.00;4.00;;;;;11.89;100.00;99514.97;2102794;28;46199;-50
2024/02/25 04:24:09;;;;;;;;;3.67;3.67;;;;;11.90;100.00;99519.38;2098709;28;47094;-50
2024/02/25 04:25:09;;;;;;;;;4.00;4.00;;;;;11.91;100.00;99517.56;2109554;27;46517;-50
2024/02/25 04:26:10;;;;;;;;;2.33;2.00;;;;;11.90;100.00;99522.03;2111442;27;46295;-53
2024/02/25 04:27:10;;;;;;;;;4.00;4.00;;;;;11.90;100.00;99521.16;2107010;27;45343;-53
2024/02/25 04:28:10;;;;;;;;;4.67;4.00;;;;;11.86;100.00;99522.25;2111248;27;46531;-50
2024/02/25 04:29:11;;;;;;;;;3.00;3.00;;;;;11.88;100.00;99515.91;2110062;27;46060;-53
2024/02/25 04:30:12;;;;;;;;;3.67;3.67;;;;;11.87;100.00;99519.50;2107642;27;46338;-49
2024/02/25 04:31:12;;;;;;;;;4.33;4.33;;;;;11.84;100.00;99522.31;2097010;28;46550;-46
2024/02/25 04:32:13;;;;;;;;;4.33;4.33;;;;;11.86;100.00;99519.59;2107995;27;46809;-50
2024/02/25 04:33:13;;;;;;;;;3.00;2.75;;;;;11.90;100.00;99526.47;2092310;28;46366;-51
2024/02/25 04:34:15;;;;;;;;;5.00;5.00;;;;;11.90;100.00;99524.69;2093634;28;46622;-50
2024/02/25 04:35:15;;;;;;;;;3.50;3.50;;;;;11.89;100.00;99525.63;2111162;27;46408;-49
2024/02/25 04:36:19;;;;;;;;;4.00;4.00;;;;;11.92;100.00;99519.28;2110129;27;46249;-51
2024/02/25 04:37:19;;;;;;;;;6.25;4.50;;;;;11.93;100.00;99521.00;2104151;27;46389;-51
2024/02/25 04:38:19;;;;;;;;;4.67;4.67;;;;;11.92;100.00;99519.28;2100635;27;46205;-48
2024/02/25 04:39:20;;;;;;;;;3.00;3.00;;;;;11.91;100.00;99525.53;2095490;28;46567;-48
2024/02/25 04:40:20;;;;;;;;;3.33;3.33;;;;;11.91;100.00;99525.53;2097317;28;45792;-48
2024/02/25 04:41:21;;;;;;;;;4.00;4.00;;;;;11.89;100.00;99524.75;2105058;28;45571;-50
2024/02/25 04:42:21;;;;;;;;;6.33;4.33;;;;;11.91;100.00;99529.06;2106370;27;46884;-47